createdAt,value
2023-01-10T00:01:30.732Z,4.63
2023-01-10T00:03:58.414Z,0.20
2023-01-10T00:06:26.313Z,1.50
2023-01-10T00:08:53.951Z,0.57
2023-01-10T00:11:44.645Z,0.27
2023-01-10T00:14:12.353Z,0.20
2023-01-10T00:16:40.729Z,0.00
2023-01-10T00:19:08.445Z,0.10
2023-01-10T00:21:36.114Z,1.23
2023-01-10T00:24:17.176Z,0.83
2023-01-10T00:26:47.633Z,0.10
2023-01-10T00:29:16.026Z,0.20
2023-01-10T00:31:43.724Z,0.77
2023-01-10T00:34:11.424Z,0.00
2023-01-10T00:36:39.101Z,0.20
2023-01-10T00:39:11.036Z,0.77
2023-01-10T00:44:24.256Z,0.20
2023-01-10T00:46:51.916Z,0.10
2023-01-10T00:49:19.817Z,0.10
2023-01-10T00:51:47.469Z,0.00
2023-01-10T00:54:15.761Z,0.10
2023-01-10T00:56:43.582Z,0.20
2023-01-10T00:59:11.336Z,0.57
2023-01-10T01:01:39.050Z,0.53
2023-01-10T01:04:06.975Z,0.23
2023-01-10T01:06:34.637Z,0.10
2023-01-10T01:09:02.283Z,0.10
2023-01-10T01:11:29.945Z,0.30
2023-01-10T01:13:57.652Z,0.30
2023-01-10T01:16:25.588Z,0.07
2023-01-10T01:18:53.452Z,0.10
2023-01-10T01:21:21.576Z,0.10
2023-01-10T01:23:51.125Z,0.00
2023-01-10T01:26:18.779Z,0.20
2023-01-10T01:28:46.395Z,0.23
2023-01-10T01:31:14.069Z,0.10
2023-01-10T01:33:41.780Z,0.17
2023-01-10T01:36:13.240Z,0.20
2023-01-10T01:38:42.231Z,0.13
2023-01-10T01:41:30.145Z,0.33
2023-01-10T01:44:04.668Z,0.10
2023-01-10T01:46:35.217Z,0.10
2023-01-10T01:49:06.043Z,0.30
2023-01-10T01:51:35.765Z,0.30
2023-01-10T01:54:07.661Z,0.30
2023-01-10T01:59:28.740Z,0.23
2023-01-10T02:02:04.120Z,0.00
2023-01-10T02:04:56.029Z,0.03
2023-01-10T02:07:26.237Z,0.30
2023-01-10T02:10:00.747Z,0.30
2023-01-10T02:12:30.350Z,0.10
2023-01-10T02:14:59.715Z,0.20
2023-01-10T02:17:27.450Z,0.30
2023-01-10T02:20:08.658Z,0.23
2023-01-10T02:22:41.730Z,0.65
2023-01-10T02:25:09.558Z,0.20
2023-01-10T02:27:46.089Z,1.63
2023-01-10T02:30:38.415Z,0.33
2023-01-10T02:33:47.053Z,0.10
2023-01-10T02:36:39.473Z,0.70
2023-01-10T02:39:29.838Z,0.40
2023-01-10T02:41:59.763Z,0.37
2023-01-10T02:44:39.638Z,0.20
2023-01-10T02:47:09.434Z,0.20
2023-01-10T02:49:48.938Z,0.20
2023-01-10T02:52:25.601Z,0.10
2023-01-10T02:54:59.540Z,0.10
2023-01-10T02:57:59.675Z,0.10
2023-01-10T03:00:39.322Z,0.00
2023-01-10T03:03:15.774Z,0.00
2023-01-10T03:05:46.244Z,0.10
2023-01-10T03:08:26.496Z,0.10
2023-01-10T03:11:06.852Z,0.50
2023-01-10T03:13:46.745Z,0.10
2023-01-10T03:16:18.750Z,0.17
2023-01-10T03:18:53.215Z,0.00
2023-01-10T03:21:23.662Z,0.10
2023-01-10T03:23:55.871Z,0.23
2023-01-10T03:26:31.768Z,0.10
2023-01-10T03:29:07.568Z,0.80
2023-01-10T03:31:48.627Z,0.07
2023-01-10T03:34:16.705Z,0.10
2023-01-10T03:37:08.579Z,0.13
2023-01-10T03:39:42.348Z,0.10
2023-01-10T03:42:16.537Z,0.03
2023-01-10T03:45:06.409Z,0.10
2023-01-10T03:47:55.132Z,6.60
2023-01-10T03:50:26.308Z,0.00
2023-01-10T03:52:54.269Z,0.15
2023-01-10T03:55:27.063Z,0.10
2023-01-10T03:57:54.967Z,0.77
2023-01-10T04:00:23.140Z,0.07
2023-01-10T04:02:50.998Z,0.00
2023-01-10T04:05:18.648Z,0.77
2023-01-10T04:07:49.133Z,0.10
2023-01-10T04:10:17.397Z,2.00
2023-01-10T04:12:45.224Z,0.60
2023-01-10T04:15:13.172Z,0.10
2023-01-10T04:17:40.815Z,0.00
2023-01-10T04:20:09.189Z,0.20
2023-01-10T04:22:36.814Z,0.30
2023-01-10T04:25:04.556Z,0.23
2023-01-10T04:27:32.202Z,0.37
2023-01-10T04:29:59.870Z,0.50
2023-01-10T04:32:27.537Z,1.83
2023-01-10T04:34:55.214Z,0.97
2023-01-10T04:37:22.852Z,0.63
2023-01-10T04:39:50.584Z,0.20
2023-01-10T04:42:19.085Z,0.47
2023-01-10T04:44:46.842Z,3.93
2023-01-10T04:47:14.480Z,4.70
2023-01-10T04:49:42.245Z,2.53
2023-01-10T04:52:09.837Z,1.97
2023-01-10T04:54:37.585Z,0.50
2023-01-10T04:57:06.548Z,0.30
2023-01-10T04:59:34.465Z,1.13
2023-01-10T05:02:02.215Z,0.80
2023-01-10T05:04:30.192Z,0.27
2023-01-10T05:06:58.054Z,0.10
2023-01-10T05:09:25.976Z,0.90
2023-01-10T05:11:53.610Z,0.50
2023-01-10T05:14:21.295Z,0.10
2023-01-10T05:16:48.961Z,0.20
2023-01-10T05:19:16.618Z,0.00
2023-01-10T05:21:44.262Z,0.10
2023-01-10T05:24:11.959Z,0.20
2023-01-10T05:26:39.628Z,0.13
2023-01-10T05:29:07.316Z,0.10
2023-01-10T05:31:34.992Z,0.57
2023-01-10T05:34:02.753Z,0.10
2023-01-10T05:36:30.456Z,0.10
2023-01-10T05:38:58.237Z,0.20
2023-01-10T05:41:25.894Z,0.10
2023-01-10T05:43:53.916Z,1.07
2023-01-10T05:46:21.570Z,0.00
2023-01-10T05:48:49.321Z,0.10
2023-01-10T05:51:16.950Z,1.90
2023-01-10T05:53:44.601Z,1.37
2023-01-10T05:56:12.351Z,0.10
2023-01-10T05:58:40.062Z,0.10
2023-01-10T06:01:07.881Z,0.10
2023-01-10T06:03:35.492Z,0.20
2023-01-10T06:06:03.558Z,0.97
2023-01-10T06:08:31.207Z,0.10
2023-01-10T06:10:58.835Z,0.10
2023-01-10T06:13:26.581Z,0.80
2023-01-10T06:15:54.288Z,1.10
2023-01-10T06:18:21.962Z,2.40
2023-01-10T06:20:49.805Z,2.10
2023-01-10T06:23:17.778Z,0.20
2023-01-10T06:25:45.867Z,1.07
2023-01-10T06:28:14.835Z,0.20
2023-01-10T06:30:43.346Z,0.17
2023-01-10T06:33:12.399Z,1.10
2023-01-10T06:35:40.288Z,2.30
2023-01-10T06:38:08.191Z,0.10
2023-01-10T06:40:35.906Z,0.10
2023-01-10T06:43:03.590Z,0.30
2023-01-10T06:45:31.235Z,0.43
2023-01-10T06:47:58.916Z,0.90
2023-01-10T06:50:26.895Z,0.40
2023-01-10T06:53:01.946Z,0.20
2023-01-10T06:55:30.698Z,0.10
2023-01-10T06:58:03.523Z,0.10
2023-01-10T07:00:32.390Z,0.00
2023-01-10T07:03:01.376Z,0.10
2023-01-10T07:05:30.611Z,0.20
2023-01-10T07:08:01.202Z,0.23
2023-01-10T07:10:29.713Z,0.13
2023-01-10T07:12:58.530Z,1.40
2023-01-10T07:15:27.574Z,0.10
2023-01-10T07:17:58.023Z,1.27
2023-01-10T07:20:26.042Z,1.40
2023-01-10T07:22:58.788Z,0.27
2023-01-10T07:25:27.920Z,1.20
2023-01-10T07:27:56.321Z,4.07
2023-01-10T07:30:26.023Z,3.40
2023-01-10T07:32:57.930Z,0.50
2023-01-10T07:37:53.966Z,0.30
2023-01-10T07:40:21.641Z,2.80
2023-01-10T07:42:50.022Z,4.03
2023-01-10T07:45:17.781Z,1.87
2023-01-10T07:47:45.472Z,6.20
2023-01-10T07:50:13.143Z,0.63
2023-01-10T07:52:40.833Z,2.37
2023-01-10T07:55:08.926Z,1.83
2023-01-10T07:57:36.659Z,3.17
2023-01-10T08:00:05.040Z,3.70
2023-01-10T08:02:32.913Z,0.50
2023-01-10T08:05:00.605Z,0.37
2023-01-10T08:07:30.859Z,1.00
2023-01-10T08:09:58.686Z,0.77
2023-01-10T08:12:26.395Z,1.40
2023-01-10T08:14:54.404Z,1.17
2023-01-10T08:17:23.053Z,0.70
2023-01-10T08:19:50.707Z,1.13
2023-01-10T08:22:18.391Z,1.50
2023-01-10T08:24:46.020Z,0.97
2023-01-10T08:27:13.638Z,3.43
2023-01-10T08:29:42.070Z,2.03
2023-01-10T08:32:10.090Z,0.40
2023-01-10T08:34:37.865Z,0.70
2023-01-10T08:37:05.887Z,0.20
2023-01-10T08:39:35.426Z,0.87
2023-01-10T08:42:03.284Z,1.47
2023-01-10T08:44:30.968Z,0.40
2023-01-10T08:46:58.749Z,0.67
2023-01-10T08:49:26.499Z,0.63
2023-01-10T08:51:54.172Z,0.40
2023-01-10T08:54:21.882Z,0.50
2023-01-10T08:56:49.512Z,0.53
2023-01-10T08:59:17.286Z,0.77
2023-01-10T09:01:45.179Z,0.40
2023-01-10T09:04:13.041Z,0.83
2023-01-10T09:06:40.705Z,0.53
2023-01-10T09:09:08.418Z,1.47
2023-01-10T09:11:36.301Z,1.57
2023-01-10T09:14:04.002Z,0.60
2023-01-10T09:16:31.733Z,1.93
2023-01-10T09:18:59.446Z,1.60
2023-01-10T09:21:28.955Z,0.50
2023-01-10T09:23:56.818Z,0.57
2023-01-10T09:26:24.537Z,0.83
2023-01-10T09:28:52.211Z,7.00
2023-01-10T09:31:19.873Z,1.70
2023-01-10T09:33:49.767Z,2.27
2023-01-10T09:36:17.417Z,1.13
2023-01-10T09:38:45.500Z,1.70
2023-01-10T09:41:23.255Z,0.23
2023-01-10T09:44:05.854Z,2.70
2023-01-10T09:47:05.992Z,1.17
2023-01-10T09:49:51.155Z,0.47
2023-01-10T09:52:42.675Z,9.50
2023-01-10T09:55:31.562Z,1.85
2023-01-10T09:58:04.817Z,4.23
2023-01-10T10:00:40.408Z,0.63
2023-01-10T10:03:25.757Z,1.30
2023-01-10T10:06:00.859Z,0.67
2023-01-10T10:08:34.983Z,0.20
2023-01-10T10:11:20.821Z,2.63
2023-01-10T10:13:57.582Z,1.47
2023-01-10T10:17:02.060Z,0.93
2023-01-10T10:19:38.713Z,0.20
2023-01-10T10:22:28.535Z,0.40
2023-01-10T10:25:17.685Z,1.70
2023-01-10T10:28:05.595Z,1.87
2023-01-10T10:30:47.524Z,0.47
2023-01-10T10:36:03.333Z,0.47
2023-01-10T10:38:36.093Z,0.63
2023-01-10T10:41:04.333Z,1.57
2023-01-10T10:43:36.435Z,1.33
2023-01-10T10:46:09.818Z,0.90
2023-01-10T10:48:57.580Z,0.67
2023-01-10T10:51:36.022Z,0.63
2023-01-10T10:54:03.981Z,0.40
2023-01-10T10:56:31.771Z,1.00
2023-01-10T10:59:00.861Z,0.73
2023-01-10T11:01:28.779Z,0.40
2023-01-10T11:04:07.758Z,0.63
2023-01-10T11:06:38.555Z,0.80
2023-01-10T11:09:07.745Z,1.87
2023-01-10T11:11:39.669Z,1.07
2023-01-10T11:14:09.658Z,2.10
2023-01-10T11:16:45.098Z,0.30
2023-01-10T11:19:30.435Z,0.20
2023-01-10T11:22:01.476Z,0.20
2023-01-10T11:24:55.245Z,0.10
2023-01-10T11:27:26.893Z,0.60
2023-01-10T11:30:00.092Z,0.32
2023-01-10T11:32:33.381Z,0.23
2023-01-10T11:35:09.038Z,0.70
2023-01-10T11:37:37.519Z,0.67
2023-01-10T11:40:17.012Z,0.60
2023-01-10T11:42:45.195Z,0.77
2023-01-10T11:45:26.828Z,0.30
2023-01-10T11:48:47.839Z,0.57
2023-01-10T11:51:19.269Z,0.87
2023-01-10T11:53:47.713Z,0.33
2023-01-10T11:56:26.029Z,0.70
2023-01-10T11:58:54.831Z,0.73
2023-01-10T12:01:41.732Z,0.30
2023-01-10T12:04:20.932Z,0.20
2023-01-10T12:07:01.523Z,1.50
2023-01-10T12:09:39.599Z,0.10
2023-01-10T12:12:21.878Z,0.90
2023-01-10T12:14:50.756Z,0.00
2023-01-10T12:17:25.571Z,0.10
2023-01-10T12:20:00.327Z,13.20
2023-01-10T12:22:33.502Z,0.40
2023-01-10T12:25:07.616Z,0.13
2023-01-10T12:27:35.315Z,0.40
2023-01-10T12:30:17.596Z,0.23
2023-01-10T12:32:56.081Z,0.73
2023-01-10T12:35:34.849Z,0.00
2023-01-10T12:38:24.781Z,0.87
2023-01-10T12:41:02.022Z,0.00
2023-01-10T12:43:56.838Z,0.30
2023-01-10T12:47:09.134Z,0.00
2023-01-10T12:49:49.461Z,0.25
2023-01-10T12:52:52.393Z,0.40
2023-01-10T12:55:21.634Z,0.10
2023-01-10T12:57:53.907Z,4.63
2023-01-10T13:00:32.812Z,1.55
2023-01-10T13:03:10.087Z,0.40
2023-01-10T13:05:37.845Z,0.35
2023-01-10T13:08:13.862Z,1.75
2023-01-10T13:10:45.984Z,0.70
2023-01-10T13:13:27.467Z,0.40
2023-01-10T13:18:30.937Z,0.68
2023-01-10T13:21:04.633Z,0.10
2023-01-10T13:23:35.130Z,1.08
2023-01-10T13:26:09.883Z,5.07
2023-01-10T13:28:41.527Z,0.15
2023-01-10T13:31:24.423Z,0.65
2023-01-10T13:33:55.005Z,0.00
2023-01-10T13:36:27.715Z,0.25
2023-01-10T13:39:02.143Z,0.20
2023-01-10T13:42:29.239Z,0.30
2023-01-10T13:45:03.361Z,0.20
2023-01-10T13:47:40.365Z,0.10
2023-01-10T13:50:33.514Z,0.20
2023-01-10T13:53:04.369Z,0.38
2023-01-10T13:55:42.659Z,0.73
2023-01-10T13:58:16.577Z,0.85
2023-01-10T14:01:03.506Z,0.63
2023-01-10T14:03:54.141Z,0.80
2023-01-10T14:06:21.739Z,0.82
2023-01-10T14:08:55.387Z,0.65
2023-01-10T14:11:47.157Z,0.60
2023-01-10T14:17:14.279Z,0.32
2023-01-10T14:19:45.298Z,0.20
2023-01-10T14:22:29.356Z,1.20
2023-01-10T14:24:57.175Z,0.20
2023-01-10T14:27:25.362Z,0.65
2023-01-10T14:30:00.502Z,5.70
2023-01-10T14:32:43.695Z,0.70
2023-01-10T14:35:19.020Z,0.77
2023-01-10T14:37:57.941Z,2.53
2023-01-10T14:40:31.044Z,3.53
2023-01-10T14:43:02.711Z,3.33
2023-01-10T14:48:51.404Z,1.63
2023-01-10T14:51:33.535Z,3.03
2023-01-10T14:54:13.093Z,1.00
2023-01-10T14:56:44.198Z,0.37
2023-01-10T14:59:24.387Z,0.47
2023-01-10T15:01:54.807Z,0.67
2023-01-10T15:04:25.198Z,1.27
2023-01-10T15:07:13.523Z,2.53
2023-01-10T15:09:49.394Z,1.37
2023-01-10T15:12:18.162Z,0.37
2023-01-10T15:14:47.030Z,0.90
2023-01-10T15:17:20.519Z,0.40
2023-01-10T15:19:52.164Z,0.50
2023-01-10T15:22:34.653Z,0.93
2023-01-10T15:25:08.627Z,0.77
2023-01-10T15:27:40.282Z,0.10
2023-01-10T15:30:11.211Z,0.20
2023-01-10T15:32:41.133Z,0.28
2023-01-10T15:35:15.795Z,0.50
2023-01-10T15:38:07.152Z,0.97
2023-01-10T15:40:38.775Z,3.70
2023-01-10T15:43:18.770Z,1.83
2023-01-10T15:45:47.615Z,0.10
2023-01-10T15:48:43.612Z,0.30
2023-01-10T15:51:30.340Z,0.70
2023-01-10T15:54:04.234Z,0.20
2023-01-10T15:56:35.816Z,0.40
2023-01-10T15:59:04.907Z,4.00
2023-01-10T16:01:35.305Z,0.30
2023-01-10T16:04:06.236Z,2.80
2023-01-10T16:06:36.736Z,2.43
2023-01-10T16:09:18.447Z,1.93
2023-01-10T16:12:10.914Z,1.58
2023-01-10T16:14:38.701Z,0.30
2023-01-10T16:17:06.893Z,0.87
2023-01-10T16:19:35.141Z,1.03
2023-01-10T16:22:03.184Z,0.30
2023-01-10T16:24:35.920Z,0.77
2023-01-10T16:27:06.933Z,3.63
2023-01-10T16:29:35.336Z,0.10
2023-01-10T16:32:02.995Z,1.30
2023-01-10T16:34:33.945Z,6.57
2023-01-10T16:37:01.587Z,7.15
2023-01-10T16:39:29.298Z,6.13
2023-01-10T16:42:14.412Z,3.47
2023-01-10T16:44:42.634Z,1.30
2023-01-10T16:47:10.280Z,2.93
2023-01-10T16:49:37.987Z,3.80
2023-01-10T16:52:05.813Z,7.70
2023-01-10T16:54:36.373Z,2.87
2023-01-10T16:57:04.009Z,2.00
2023-01-10T16:59:31.702Z,0.20
2023-01-10T17:01:59.724Z,3.30
2023-01-10T17:04:30.717Z,11.37
2023-01-10T17:06:59.224Z,9.82
2023-01-10T17:09:29.999Z,3.13
2023-01-10T17:12:05.271Z,19.43
2023-01-10T17:14:35.785Z,11.90
2023-01-10T17:17:04.933Z,19.50
2023-01-10T17:19:32.811Z,2.13
2023-01-10T17:22:00.588Z,4.37
2023-01-10T17:24:29.698Z,3.23
2023-01-10T17:26:57.542Z,1.67
2023-01-10T17:29:25.215Z,1.63
2023-01-10T17:31:52.860Z,15.30
2023-01-10T17:34:20.601Z,23.70
2023-01-10T17:36:48.240Z,27.70
2023-01-10T17:39:15.948Z,31.20
2023-01-10T17:41:44.531Z,48.30
2023-01-10T17:44:12.211Z,26.27
2023-01-10T17:46:39.954Z,20.03
2023-01-10T17:49:07.612Z,22.93
2023-01-10T17:51:35.248Z,21.77
2023-01-10T17:54:02.941Z,35.73
2023-01-10T17:56:30.933Z,21.53
2023-01-10T17:58:58.655Z,43.43
2023-01-10T18:01:27.125Z,39.53
2023-01-10T18:03:55.504Z,15.47
2023-01-10T18:06:24.522Z,19.17
2023-01-10T18:08:52.826Z,7.90
2023-01-10T18:11:20.948Z,5.10
2023-01-10T18:13:48.649Z,5.87
2023-01-10T18:16:16.330Z,4.03
2023-01-10T18:18:44.133Z,8.57
2023-01-10T18:21:17.264Z,15.50
2023-01-10T18:23:46.724Z,13.30
2023-01-10T18:26:14.716Z,90.60
2023-01-10T18:28:45.122Z,66.10
2023-01-10T18:31:17.826Z,79.10
2023-01-10T18:33:46.776Z,15.03
2023-01-10T18:36:17.682Z,25.33
2023-01-10T18:38:46.313Z,33.37
2023-01-10T18:41:17.504Z,17.10
2023-01-10T18:43:45.892Z,16.13
2023-01-10T18:46:18.411Z,10.93
2023-01-10T18:48:47.116Z,12.43
2023-01-10T18:51:15.396Z,21.33
2023-01-10T18:53:43.758Z,12.77
2023-01-10T18:56:12.259Z,12.37
2023-01-10T18:58:42.185Z,9.77
2023-01-10T19:01:15.859Z,5.93
2023-01-10T19:03:44.299Z,15.57
2023-01-10T19:06:16.117Z,7.43
2023-01-10T19:11:15.389Z,2.53
2023-01-10T19:13:45.379Z,5.57
2023-01-10T19:16:14.777Z,11.20
2023-01-10T19:18:43.302Z,5.50
2023-01-10T19:21:15.328Z,13.10
2023-01-10T19:23:44.500Z,6.37
2023-01-10T19:26:12.561Z,8.07
2023-01-10T19:28:40.349Z,16.47
2023-01-10T19:31:08.069Z,19.33
2023-01-10T19:33:37.522Z,13.20
2023-01-10T19:36:07.440Z,12.67
2023-01-10T19:38:35.386Z,10.33
2023-01-10T19:41:03.907Z,13.30
2023-01-10T19:43:32.158Z,7.10
2023-01-10T19:45:59.931Z,10.67
2023-01-10T19:48:27.720Z,4.63
2023-01-10T19:50:55.395Z,18.53
2023-01-10T19:53:27.112Z,14.17
2023-01-10T19:56:03.029Z,27.33
2023-01-10T19:58:31.901Z,27.90
2023-01-10T20:01:07.983Z,24.50
2023-01-10T20:03:35.721Z,6.67
2023-01-10T20:06:09.192Z,8.03
2023-01-10T20:08:37.352Z,23.17
2023-01-10T20:11:06.282Z,24.97
2023-01-10T20:13:39.883Z,14.40
2023-01-10T20:16:08.249Z,25.57
2023-01-10T20:18:35.934Z,21.03
2023-01-10T20:21:08.303Z,14.80
2023-01-10T20:23:37.381Z,8.13
2023-01-10T20:26:26.091Z,12.63
2023-01-10T20:28:56.332Z,7.27
2023-01-10T20:31:25.232Z,8.27
2023-01-10T20:33:52.949Z,7.07
2023-01-10T20:36:26.500Z,6.20
2023-01-10T20:38:54.881Z,8.60
2023-01-10T20:41:27.876Z,15.10
2023-01-10T20:43:56.777Z,16.80
2023-01-10T20:46:28.758Z,17.80
2023-01-10T20:48:57.458Z,14.67
2023-01-10T20:51:28.337Z,11.10
2023-01-10T20:53:56.308Z,13.23
2023-01-10T20:56:26.948Z,18.50
2023-01-10T20:58:55.909Z,5.03
2023-01-10T21:01:34.012Z,4.73
2023-01-10T21:04:03.858Z,4.87
2023-01-10T21:06:31.814Z,5.93
2023-01-10T21:09:00.526Z,6.60
2023-01-10T21:11:28.643Z,3.13
2023-01-10T21:13:56.319Z,7.80
2023-01-10T21:16:25.374Z,3.63
2023-01-10T21:18:53.261Z,2.70
2023-01-10T21:21:23.458Z,3.50
2023-01-10T21:23:53.754Z,5.57
2023-01-10T21:26:21.634Z,9.77
2023-01-10T21:28:49.431Z,5.33
2023-01-10T21:31:20.237Z,6.90
2023-01-10T21:33:49.138Z,9.40
2023-01-10T21:36:17.496Z,3.47
2023-01-10T21:38:45.276Z,5.03
2023-01-10T21:41:40.194Z,4.70
2023-01-10T21:44:08.963Z,8.80
2023-01-10T21:46:37.334Z,10.67
2023-01-10T21:49:05.850Z,12.73
2023-01-10T21:51:33.605Z,15.27
2023-01-10T21:54:01.251Z,9.73
2023-01-10T21:56:29.123Z,8.07
2023-01-10T21:58:56.987Z,9.30
2023-01-10T22:01:24.698Z,16.50
2023-01-10T22:03:52.535Z,13.83
2023-01-10T22:06:20.442Z,7.10
2023-01-10T22:08:48.132Z,9.10
2023-01-10T22:11:15.769Z,8.77
2023-01-10T22:13:43.466Z,11.03
2023-01-10T22:16:11.355Z,19.03
2023-01-10T22:18:39.072Z,12.83
2023-01-10T22:21:06.939Z,12.43
2023-01-10T22:23:34.795Z,8.93
2023-01-10T22:26:11.935Z,6.77
2023-01-10T22:28:39.641Z,5.13
2023-01-10T22:31:07.603Z,5.80
2023-01-10T22:33:37.734Z,8.67
2023-01-10T22:36:13.512Z,6.77
2023-01-10T22:38:41.705Z,8.40
2023-01-10T22:41:12.126Z,8.27
2023-01-10T22:43:40.053Z,4.63
2023-01-10T22:46:08.475Z,10.10
2023-01-10T22:48:37.234Z,7.00
2023-01-10T22:51:05.796Z,7.93
2023-01-10T22:53:35.225Z,5.57
2023-01-10T22:56:07.929Z,10.07
2023-01-10T22:58:35.581Z,7.80
2023-01-10T23:01:07.945Z,8.40
2023-01-10T23:03:36.008Z,15.03
2023-01-10T23:06:03.684Z,29.50
2023-01-10T23:08:31.400Z,9.90
2023-01-10T23:10:59.095Z,6.27
2023-01-10T23:13:27.388Z,8.43
2023-01-10T23:15:58.400Z,8.60
2023-01-10T23:18:27.244Z,10.63
2023-01-10T23:20:55.802Z,2.77
2023-01-10T23:23:24.088Z,5.70
2023-01-10T23:26:01.665Z,11.57
2023-01-10T23:28:31.348Z,6.70
2023-01-10T23:30:59.706Z,7.50
2023-01-10T23:33:27.643Z,2.03
2023-01-10T23:35:58.230Z,4.57
2023-01-10T23:38:26.551Z,2.70
2023-01-10T23:40:54.917Z,3.33
2023-01-10T23:43:23.247Z,4.27
2023-01-10T23:45:51.198Z,5.40
2023-01-10T23:48:19.462Z,4.97
2023-01-10T23:50:51.158Z,0.93
2023-01-10T23:53:19.358Z,2.40
2023-01-10T23:55:47.848Z,5.60
2023-01-10T23:58:16.935Z,1.67
